sensor_id;sensor_type;location;lat;lon;timestamp;temperature;humidity
15700;DHT22;7950;42.744;23.174;2022-09-09T00:00:49;15.70;99.90
15700;DHT22;7950;42.744;23.174;2022-09-09T00:03:26;15.80;99.90
15700;DHT22;7950;42.744;23.174;2022-09-09T00:06:04;15.70;99.90
15700;DHT22;7950;42.744;23.174;2022-09-09T00:08:46;15.60;99.90
15700;DHT22;7950;42.744;23.174;2022-09-09T00:11:26;15.60;99.90
15700;DHT22;7950;42.744;23.174;2022-09-09T00:14:01;15.60;99.90
15700;DHT22;7950;42.744;23.174;2022-09-09T00:16:40;15.60;99.90
15700;DHT22;7950;42.744;23.174;2022-09-09T00:19:20;15.60;99.90
15700;DHT22;7950;42.744;23.174;2022-09-09T00:22:04;15.60;99.90
15700;DHT22;7950;42.744;23.174;2022-09-09T00:24:46;15.60;99.90
15700;DHT22;7950;42.744;23.174;2022-09-09T00:27:30;15.50;99.90
15700;DHT22;7950;42.744;23.174;2022-09-09T00:30:14;15.50;99.90
15700;DHT22;7950;42.744;23.174;2022-09-09T00:33:11;15.40;99.90
15700;DHT22;7950;42.744;23.174;2022-09-09T00:35:44;15.40;99.90
15700;DHT22;7950;42.744;23.174;2022-09-09T00:38:20;15.40;99.90
15700;DHT22;7950;42.744;23.174;2022-09-09T00:41:05;15.30;99.90
15700;DHT22;7950;42.744;23.174;2022-09-09T00:43:40;15.30;99.90
15700;DHT22;7950;42.744;23.174;2022-09-09T00:46:25;15.30;99.90
15700;DHT22;7950;42.744;23.174;2022-09-09T00:49:23;15.20;99.90
15700;DHT22;7950;42.744;23.174;2022-09-09T00:52:13;15.20;99.90
15700;DHT22;7950;42.744;23.174;2022-09-09T00:55:03;15.20;99.90
15700;DHT22;7950;42.744;23.174;2022-09-09T00:57:36;15.20;99.90
15700;DHT22;7950;42.744;23.174;2022-09-09T01:00:22;15.10;99.90
15700;DHT22;7950;42.744;23.174;2022-09-09T01:03:16;15.10;99.90
15700;DHT22;7950;42.744;23.174;2022-09-09T01:06:01;15.10;99.90
15700;DHT22;7950;42.744;23.174;2022-09-09T01:08:42;15.10;99.90
15700;DHT22;7950;42.744;23.174;2022-09-09T01:11:28;15.00;99.90
15700;DHT22;7950;42.744;23.174;2022-09-09T01:14:18;15.00;99.90
15700;DHT22;7950;42.744;23.174;2022-09-09T01:17:01;15.10;99.90
15700;DHT22;7950;42.744;23.174;2022-09-09T01:19:44;15.10;99.90
15700;DHT22;7950;42.744;23.174;2022-09-09T01:22:33;15.10;99.90
15700;DHT22;7950;42.744;23.174;2022-09-09T01:25:56;15.10;99.90
15700;DHT22;7950;42.744;23.174;2022-09-09T01:28:47;15.10;99.90
15700;DHT22;7950;42.744;23.174;2022-09-09T01:31:21;15.10;99.90
15700;DHT22;7950;42.744;23.174;2022-09-09T01:33:53;15.00;99.90
15700;DHT22;7950;42.744;23.174;2022-09-09T01:36:27;15.00;99.90
15700;DHT22;7950;42.744;23.174;2022-09-09T01:39:03;15.00;99.90
15700;DHT22;7950;42.744;23.174;2022-09-09T01:41:33;14.90;99.90
15700;DHT22;7950;42.744;23.174;2022-09-09T01:44:03;14.90;99.90
15700;DHT22;7950;42.744;23.174;2022-09-09T01:46:32;15.00;99.90
15700;DHT22;7950;42.744;23.174;2022-09-09T01:49:02;14.90;99.90
15700;DHT22;7950;42.744;23.174;2022-09-09T01:51:35;14.90;99.90
15700;DHT22;7950;42.744;23.174;2022-09-09T01:54:07;14.90;99.90
15700;DHT22;7950;42.744;23.174;2022-09-09T01:56:47;14.80;99.90
15700;DHT22;7950;42.744;23.174;2022-09-09T01:59:48;14.80;99.90
15700;DHT22;7950;42.744;23.174;2022-09-09T02:02:32;14.90;99.90
15700;DHT22;7950;42.744;23.174;2022-09-09T02:05:15;14.80;99.90
15700;DHT22;7950;42.744;23.174;2022-09-09T02:07:54;14.70;99.90
15700;DHT22;7950;42.744;23.174;2022-09-09T02:10:32;14.70;99.90
15700;DHT22;7950;42.744;23.174;2022-09-09T02:13:09;14.70;99.90
15700;DHT22;7950;42.744;23.174;2022-09-09T02:15:45;14.70;99.90
15700;DHT22;7950;42.744;23.174;2022-09-09T02:18:21;14.70;99.90
15700;DHT22;7950;42.744;23.174;2022-09-09T02:20:55;14.70;99.90
15700;DHT22;7950;42.744;23.174;2022-09-09T02:23:26;14.70;99.90
15700;DHT22;7950;42.744;23.174;2022-09-09T02:25:58;14.70;99.90
15700;DHT22;7950;42.744;23.174;2022-09-09T02:28:31;14.70;99.90
15700;DHT22;7950;42.744;23.174;2022-09-09T02:31:23;14.60;99.90
15700;DHT22;7950;42.744;23.174;2022-09-09T02:33:56;14.60;99.90
15700;DHT22;7950;42.744;23.174;2022-09-09T02:36:30;14.60;99.90
15700;DHT22;7950;42.744;23.174;2022-09-09T02:39:03;14.60;99.90
15700;DHT22;7950;42.744;23.174;2022-09-09T02:41:37;14.60;99.90
15700;DHT22;7950;42.744;23.174;2022-09-09T02:44:12;14.60;99.90
15700;DHT22;7950;42.744;23.174;2022-09-09T02:47:18;14.60;99.90
15700;DHT22;7950;42.744;23.174;2022-09-09T02:50:04;14.50;99.90
15700;DHT22;7950;42.744;23.174;2022-09-09T02:52:52;14.60;99.90
15700;DHT22;7950;42.744;23.174;2022-09-09T02:55:56;14.60;99.90
15700;DHT22;7950;42.744;23.174;2022-09-09T02:58:31;14.60;99.90
15700;DHT22;7950;42.744;23.174;2022-09-09T03:01:02;14.60;99.90
15700;DHT22;7950;42.744;23.174;2022-09-09T03:03:32;14.50;99.90
15700;DHT22;7950;42.744;23.174;2022-09-09T03:06:02;14.50;99.90
15700;DHT22;7950;42.744;23.174;2022-09-09T03:08:33;14.50;99.90
15700;DHT22;7950;42.744;23.174;2022-09-09T03:11:03;14.50;99.90
15700;DHT22;7950;42.744;23.174;2022-09-09T03:13:32;14.50;99.90
15700;DHT22;7950;42.744;23.174;2022-09-09T03:16:03;14.50;99.90
15700;DHT22;7950;42.744;23.174;2022-09-09T03:18:32;14.40;99.90
15700;DHT22;7950;42.744;23.174;2022-09-09T03:21:02;14.40;99.90
15700;DHT22;7950;42.744;23.174;2022-09-09T03:23:31;14.40;99.90
15700;DHT22;7950;42.744;23.174;2022-09-09T03:25:59;14.40;99.90
15700;DHT22;7950;42.744;23.174;2022-09-09T03:28:29;14.40;99.90
15700;DHT22;7950;42.744;23.174;2022-09-09T03:30:59;14.40;99.90
15700;DHT22;7950;42.744;23.174;2022-09-09T03:33:30;14.40;99.90
15700;DHT22;7950;42.744;23.174;2022-09-09T03:36:01;14.40;99.90
15700;DHT22;7950;42.744;23.174;2022-09-09T03:38:31;14.50;99.90
15700;DHT22;7950;42.744;23.174;2022-09-09T03:41:00;14.50;99.90
15700;DHT22;7950;42.744;23.174;2022-09-09T03:43:29;14.50;99.90
15700;DHT22;7950;42.744;23.174;2022-09-09T03:45:58;14.40;99.90
15700;DHT22;7950;42.744;23.174;2022-09-09T03:48:29;14.40;99.90
15700;DHT22;7950;42.744;23.174;2022-09-09T03:50:59;14.40;99.90
15700;DHT22;7950;42.744;23.174;2022-09-09T03:53:30;14.30;99.90
15700;DHT22;7950;42.744;23.174;2022-09-09T03:56:00;14.30;99.90
15700;DHT22;7950;42.744;23.174;2022-09-09T03:58:30;14.30;99.90
15700;DHT22;7950;42.744;23.174;2022-09-09T04:01:00;14.30;99.90
15700;DHT22;7950;42.744;23.174;2022-09-09T04:03:32;14.20;99.90
15700;DHT22;7950;42.744;23.174;2022-09-09T04:06:03;14.20;99.90
15700;DHT22;7950;42.744;23.174;2022-09-09T04:08:34;14.20;99.90
15700;DHT22;7950;42.744;23.174;2022-09-09T04:11:05;14.30;99.90
15700;DHT22;7950;42.744;23.174;2022-09-09T04:13:35;14.30;99.90
15700;DHT22;7950;42.744;23.174;2022-09-09T04:16:06;14.40;99.90
15700;DHT22;7950;42.744;23.174;2022-09-09T04:18:39;14.40;99.90
15700;DHT22;7950;42.744;23.174;2022-09-09T04:21:09;14.40;99.90
15700;DHT22;7950;42.744;23.174;2022-09-09T04:23:39;14.40;99.90
15700;DHT22;7950;42.744;23.174;2022-09-09T04:26:08;14.40;99.90
15700;DHT22;7950;42.744;23.174;2022-09-09T04:28:38;14.50;99.90
15700;DHT22;7950;42.744;23.174;2022-09-09T04:31:09;14.60;99.90
15700;DHT22;7950;42.744;23.174;2022-09-09T04:33:41;14.60;99.90
15700;DHT22;7950;42.744;23.174;2022-09-09T04:36:09;14.60;99.90
15700;DHT22;7950;42.744;23.174;2022-09-09T04:38:51;14.70;99.90
15700;DHT22;7950;42.744;23.174;2022-09-09T04:41:20;14.70;99.90
15700;DHT22;7950;42.744;23.174;2022-09-09T04:43:50;14.80;99.90
15700;DHT22;7950;42.744;23.174;2022-09-09T04:46:20;14.80;99.90
15700;DHT22;7950;42.744;23.174;2022-09-09T04:48:51;14.90;99.90
15700;DHT22;7950;42.744;23.174;2022-09-09T04:51:21;14.90;99.90
15700;DHT22;7950;42.744;23.174;2022-09-09T04:53:50;15.00;99.90
15700;DHT22;7950;42.744;23.174;2022-09-09T04:56:21;15.00;99.90
15700;DHT22;7950;42.744;23.174;2022-09-09T04:58:50;15.10;99.90
15700;DHT22;7950;42.744;23.174;2022-09-09T05:01:24;15.20;99.90
15700;DHT22;7950;42.744;23.174;2022-09-09T05:04:14;15.40;99.90
15700;DHT22;7950;42.744;23.174;2022-09-09T05:06:43;15.50;99.90
15700;DHT22;7950;42.744;23.174;2022-09-09T05:09:14;15.70;99.90
15700;DHT22;7950;42.744;23.174;2022-09-09T05:11:43;15.80;99.90
15700;DHT22;7950;42.744;23.174;2022-09-09T05:14:12;16.00;99.90
15700;DHT22;7950;42.744;23.174;2022-09-09T05:16:41;16.20;99.90
15700;DHT22;7950;42.744;23.174;2022-09-09T05:19:11;16.30;99.90
15700;DHT22;7950;42.744;23.174;2022-09-09T05:21:42;16.50;99.90
15700;DHT22;7950;42.744;23.174;2022-09-09T05:24:11;16.70;99.90
15700;DHT22;7950;42.744;23.174;2022-09-09T05:26:40;16.80;99.90
15700;DHT22;7950;42.744;23.174;2022-09-09T05:29:09;17.00;99.90
15700;DHT22;7950;42.744;23.174;2022-09-09T05:31:38;17.20;99.90
15700;DHT22;7950;42.744;23.174;2022-09-09T05:34:08;17.40;99.90
15700;DHT22;7950;42.744;23.174;2022-09-09T05:36:37;17.60;99.90
15700;DHT22;7950;42.744;23.174;2022-09-09T05:39:08;17.80;99.90
15700;DHT22;7950;42.744;23.174;2022-09-09T05:41:39;17.90;99.90
15700;DHT22;7950;42.744;23.174;2022-09-09T05:44:07;18.10;99.90
15700;DHT22;7950;42.744;23.174;2022-09-09T05:46:36;18.30;99.90
15700;DHT22;7950;42.744;23.174;2022-09-09T05:49:05;18.50;99.90
15700;DHT22;7950;42.744;23.174;2022-09-09T05:51:35;18.60;99.90
15700;DHT22;7950;42.744;23.174;2022-09-09T05:54:04;18.70;99.90
15700;DHT22;7950;42.744;23.174;2022-09-09T05:56:35;18.80;99.90
15700;DHT22;7950;42.744;23.174;2022-09-09T05:59:04;19.00;99.90
15700;DHT22;7950;42.744;23.174;2022-09-09T06:01:35;19.10;99.90
15700;DHT22;7950;42.744;23.174;2022-09-09T06:04:08;19.30;99.90
15700;DHT22;7950;42.744;23.174;2022-09-09T06:06:38;19.40;99.90
15700;DHT22;7950;42.744;23.174;2022-09-09T06:09:09;19.50;99.90
15700;DHT22;7950;42.744;23.174;2022-09-09T06:11:42;19.50;99.90
15700;DHT22;7950;42.744;23.174;2022-09-09T06:14:12;19.50;99.90
15700;DHT22;7950;42.744;23.174;2022-09-09T06:16:41;19.70;99.90
15700;DHT22;7950;42.744;23.174;2022-09-09T06:19:11;19.80;99.90
15700;DHT22;7950;42.744;23.174;2022-09-09T06:21:41;20.00;99.90
15700;DHT22;7950;42.744;23.174;2022-09-09T06:24:11;20.10;99.90
15700;DHT22;7950;42.744;23.174;2022-09-09T06:26:45;20.30;99.90
15700;DHT22;7950;42.744;23.174;2022-09-09T06:29:15;20.40;99.90
15700;DHT22;7950;42.744;23.174;2022-09-09T06:31:43;20.50;99.90
15700;DHT22;7950;42.744;23.174;2022-09-09T06:34:14;20.40;99.90
15700;DHT22;7950;42.744;23.174;2022-09-09T06:36:43;20.50;99.90
15700;DHT22;7950;42.744;23.174;2022-09-09T06:39:12;20.60;99.90
15700;DHT22;7950;42.744;23.174;2022-09-09T06:41:43;20.80;99.90
15700;DHT22;7950;42.744;23.174;2022-09-09T06:44:14;20.90;99.90
15700;DHT22;7950;42.744;23.174;2022-09-09T06:46:44;21.00;99.90
15700;DHT22;7950;42.744;23.174;2022-09-09T06:49:15;21.10;99.90
15700;DHT22;7950;42.744;23.174;2022-09-09T06:51:44;21.10;99.90
15700;DHT22;7950;42.744;23.174;2022-09-09T06:54:13;21.30;99.90
15700;DHT22;7950;42.744;23.174;2022-09-09T06:56:42;21.40;99.90
15700;DHT22;7950;42.744;23.174;2022-09-09T06:59:13;21.50;99.90
15700;DHT22;7950;42.744;23.174;2022-09-09T07:01:43;21.70;99.90
15700;DHT22;7950;42.744;23.174;2022-09-09T07:04:18;21.80;99.90
15700;DHT22;7950;42.744;23.174;2022-09-09T07:06:46;21.90;99.90
15700;DHT22;7950;42.744;23.174;2022-09-09T07:09:16;21.80;99.90
15700;DHT22;7950;42.744;23.174;2022-09-09T07:11:48;22.00;99.90
15700;DHT22;7950;42.744;23.174;2022-09-09T07:14:20;22.10;99.90
15700;DHT22;7950;42.744;23.174;2022-09-09T07:16:49;22.20;99.90
15700;DHT22;7950;42.744;23.174;2022-09-09T07:19:20;22.40;99.90
15700;DHT22;7950;42.744;23.174;2022-09-09T07:22:14;22.40;99.90
15700;DHT22;7950;42.744;23.174;2022-09-09T07:24:44;22.40;99.90
15700;DHT22;7950;42.744;23.174;2022-09-09T07:27:14;22.50;99.90
15700;DHT22;7950;42.744;23.174;2022-09-09T07:29:43;22.60;99.90
15700;DHT22;7950;42.744;23.174;2022-09-09T07:32:12;22.80;99.90
15700;DHT22;7950;42.744;23.174;2022-09-09T07:34:42;23.00;99.90
15700;DHT22;7950;42.744;23.174;2022-09-09T07:37:10;23.10;99.90
15700;DHT22;7950;42.744;23.174;2022-09-09T07:39:40;23.20;99.90
15700;DHT22;7950;42.744;23.174;2022-09-09T07:42:09;23.40;99.90
15700;DHT22;7950;42.744;23.174;2022-09-09T07:44:40;23.70;99.90
15700;DHT22;7950;42.744;23.174;2022-09-09T07:47:09;23.90;99.90
15700;DHT22;7950;42.744;23.174;2022-09-09T07:49:37;24.10;99.90
15700;DHT22;7950;42.744;23.174;2022-09-09T07:52:07;24.10;99.90
15700;DHT22;7950;42.744;23.174;2022-09-09T07:54:36;24.00;99.90
15700;DHT22;7950;42.744;23.174;2022-09-09T07:57:05;24.00;99.90
15700;DHT22;7950;42.744;23.174;2022-09-09T07:59:34;24.10;99.90
15700;DHT22;7950;42.744;23.174;2022-09-09T08:02:05;24.00;99.90
15700;DHT22;7950;42.744;23.174;2022-09-09T08:04:34;24.00;99.90
15700;DHT22;7950;42.744;23.174;2022-09-09T08:07:04;24.00;99.90
15700;DHT22;7950;42.744;23.174;2022-09-09T08:09:33;24.00;99.90
15700;DHT22;7950;42.744;23.174;2022-09-09T08:12:02;24.20;99.90
15700;DHT22;7950;42.744;23.174;2022-09-09T08:14:32;24.30;99.90
15700;DHT22;7950;42.744;23.174;2022-09-09T08:17:01;24.40;99.90
15700;DHT22;7950;42.744;23.174;2022-09-09T08:19:31;24.50;99.90
15700;DHT22;7950;42.744;23.174;2022-09-09T08:22:03;24.50;99.90
15700;DHT22;7950;42.744;23.174;2022-09-09T08:24:32;24.70;99.90
15700;DHT22;7950;42.744;23.174;2022-09-09T08:27:01;24.70;99.90
15700;DHT22;7950;42.744;23.174;2022-09-09T08:29:30;24.80;99.90
15700;DHT22;7950;42.744;23.174;2022-09-09T08:31:59;24.80;99.40
15700;DHT22;7950;42.744;23.174;2022-09-09T08:34:31;24.70;99.60
15700;DHT22;7950;42.744;23.174;2022-09-09T08:36:59;24.60;99.90
15700;DHT22;7950;42.744;23.174;2022-09-09T08:39:29;24.70;99.90
15700;DHT22;7950;42.744;23.174;2022-09-09T08:42:25;24.70;99.90
15700;DHT22;7950;42.744;23.174;2022-09-09T08:45:12;24.80;99.90
15700;DHT22;7950;42.744;23.174;2022-09-09T08:47:56;24.90;99.90
15700;DHT22;7950;42.744;23.174;2022-09-09T08:50:37;25.10;99.90
15700;DHT22;7950;42.744;23.174;2022-09-09T08:53:15;25.40;99.90
15700;DHT22;7950;42.744;23.174;2022-09-09T08:55:48;25.50;98.70
15700;DHT22;7950;42.744;23.174;2022-09-09T08:58:21;25.50;97.90
15700;DHT22;7950;42.744;23.174;2022-09-09T09:01:17;25.30;98.00
15700;DHT22;7950;42.744;23.174;2022-09-09T09:04:10;25.30;98.40
15700;DHT22;7950;42.744;23.174;2022-09-09T09:06:54;25.50;97.40
15700;DHT22;7950;42.744;23.174;2022-09-09T09:09:39;25.50;96.90
15700;DHT22;7950;42.744;23.174;2022-09-09T09:12:16;25.50;97.60
15700;DHT22;7950;42.744;23.174;2022-09-09T09:14:49;25.50;97.10
15700;DHT22;7950;42.744;23.174;2022-09-09T09:17:19;25.60;97.10
15700;DHT22;7950;42.744;23.174;2022-09-09T09:19:49;25.70;98.50
15700;DHT22;7950;42.744;23.174;2022-09-09T09:22:21;25.90;97.60
15700;DHT22;7950;42.744;23.174;2022-09-09T09:24:54;26.00;97.10
15700;DHT22;7950;42.744;23.174;2022-09-09T09:27:32;26.00;96.20
15700;DHT22;7950;42.744;23.174;2022-09-09T09:30:14;26.00;96.90
15700;DHT22;7950;42.744;23.174;2022-09-09T09:32:59;25.90;97.20
15700;DHT22;7950;42.744;23.174;2022-09-09T09:35:31;25.90;97.70
15700;DHT22;7950;42.744;23.174;2022-09-09T09:38:16;25.80;97.00
15700;DHT22;7950;42.744;23.174;2022-09-09T09:41:07;25.60;96.60
15700;DHT22;7950;42.744;23.174;2022-09-09T09:43:37;25.40;97.70
15700;DHT22;7950;42.744;23.174;2022-09-09T09:46:20;25.20;98.20
15700;DHT22;7950;42.744;23.174;2022-09-09T09:48:57;25.10;98.70
15700;DHT22;7950;42.744;23.174;2022-09-09T09:51:28;25.00;99.40
15700;DHT22;7950;42.744;23.174;2022-09-09T09:54:25;24.90;99.90
15700;DHT22;7950;42.744;23.174;2022-09-09T09:57:08;24.80;99.90
15700;DHT22;7950;42.744;23.174;2022-09-09T09:59:38;24.80;99.90
15700;DHT22;7950;42.744;23.174;2022-09-09T10:02:16;24.80;99.90
15700;DHT22;7950;42.744;23.174;2022-09-09T10:04:48;24.80;99.90
15700;DHT22;7950;42.744;23.174;2022-09-09T10:07:19;24.70;99.90
15700;DHT22;7950;42.744;23.174;2022-09-09T10:09:55;24.70;99.90
15700;DHT22;7950;42.744;23.174;2022-09-09T10:12:36;24.50;99.90
15700;DHT22;7950;42.744;23.174;2022-09-09T10:15:27;24.50;99.90
15700;DHT22;7950;42.744;23.174;2022-09-09T10:18:13;24.40;99.90
15700;DHT22;7950;42.744;23.174;2022-09-09T10:20:56;24.40;99.90
15700;DHT22;7950;42.744;23.174;2022-09-09T10:23:46;24.40;99.90
15700;DHT22;7950;42.744;23.174;2022-09-09T10:26:35;24.40;99.90
15700;DHT22;7950;42.744;23.174;2022-09-09T10:29:30;24.50;99.90
15700;DHT22;7950;42.744;23.174;2022-09-09T10:32:28;24.50;99.90
15700;DHT22;7950;42.744;23.174;2022-09-09T10:35:10;24.40;99.90
15700;DHT22;7950;42.744;23.174;2022-09-09T10:38:00;24.50;99.90
15700;DHT22;7950;42.744;23.174;2022-09-09T10:40:48;24.50;99.90
15700;DHT22;7950;42.744;23.174;2022-09-09T10:44:02;24.50;99.90
15700;DHT22;7950;42.744;23.174;2022-09-09T10:46:52;24.50;99.90
15700;DHT22;7950;42.744;23.174;2022-09-09T10:49:51;24.50;99.90
15700;DHT22;7950;42.744;23.174;2022-09-09T10:52:32;24.50;99.90
15700;DHT22;7950;42.744;23.174;2022-09-09T10:55:10;24.50;99.90
15700;DHT22;7950;42.744;23.174;2022-09-09T10:57:45;24.50;99.90
15700;DHT22;7950;42.744;23.174;2022-09-09T11:00:19;24.60;99.90
15700;DHT22;7950;42.744;23.174;2022-09-09T11:02:52;24.70;99.90
15700;DHT22;7950;42.744;23.174;2022-09-09T11:05:28;24.80;99.90
15700;DHT22;7950;42.744;23.174;2022-09-09T11:08:04;24.80;99.90
15700;DHT22;7950;42.744;23.174;2022-09-09T11:10:39;24.90;99.90
15700;DHT22;7950;42.744;23.174;2022-09-09T11:13:17;24.90;99.90
15700;DHT22;7950;42.744;23.174;2022-09-09T11:16:00;24.90;99.90
15700;DHT22;7950;42.744;23.174;2022-09-09T11:18:38;25.00;99.90
15700;DHT22;7950;42.744;23.174;2022-09-09T11:21:16;25.10;99.90
15700;DHT22;7950;42.744;23.174;2022-09-09T11:23:53;25.20;99.90
15700;DHT22;7950;42.744;23.174;2022-09-09T11:26:30;25.20;99.90
15700;DHT22;7950;42.744;23.174;2022-09-09T11:29:27;25.30;99.90
15700;DHT22;7950;42.744;23.174;2022-09-09T11:32:53;25.30;99.90
15700;DHT22;7950;42.744;23.174;2022-09-09T11:35:41;25.40;99.90
15700;DHT22;7950;42.744;23.174;2022-09-09T11:38:26;25.50;99.90
15700;DHT22;7950;42.744;23.174;2022-09-09T11:40:57;25.50;99.90
15700;DHT22;7950;42.744;23.174;2022-09-09T11:43:30;25.50;99.90
15700;DHT22;7950;42.744;23.174;2022-09-09T11:46:02;25.40;99.90
15700;DHT22;7950;42.744;23.174;2022-09-09T11:48:35;25.50;99.90
15700;DHT22;7950;42.744;23.174;2022-09-09T11:51:07;25.60;99.90
15700;DHT22;7950;42.744;23.174;2022-09-09T11:53:51;25.80;99.90
15700;DHT22;7950;42.744;23.174;2022-09-09T11:56:28;26.00;99.90
15700;DHT22;7950;42.744;23.174;2022-09-09T11:59:00;26.20;99.90
15700;DHT22;7950;42.744;23.174;2022-09-09T12:01:38;26.40;99.90
15700;DHT22;7950;42.744;23.174;2022-09-09T12:04:33;26.40;99.90
15700;DHT22;7950;42.744;23.174;2022-09-09T12:07:25;26.60;99.90
15700;DHT22;7950;42.744;23.174;2022-09-09T12:10:02;26.50;99.90
15700;DHT22;7950;42.744;23.174;2022-09-09T12:12:35;26.60;99.90
15700;DHT22;7950;42.744;23.174;2022-09-09T12:15:25;26.40;99.90
15700;DHT22;7950;42.744;23.174;2022-09-09T12:17:57;26.20;99.90
15700;DHT22;7950;42.744;23.174;2022-09-09T12:20:36;26.10;99.90
15700;DHT22;7950;42.744;23.174;2022-09-09T12:23:16;26.00;99.90
15700;DHT22;7950;42.744;23.174;2022-09-09T12:26:03;26.00;99.90
15700;DHT22;7950;42.744;23.174;2022-09-09T12:29:01;26.10;99.90
15700;DHT22;7950;42.744;23.174;2022-09-09T12:31:42;26.10;99.90
15700;DHT22;7950;42.744;23.174;2022-09-09T12:34:18;26.10;99.90
15700;DHT22;7950;42.744;23.174;2022-09-09T12:37:03;26.10;99.90
15700;DHT22;7950;42.744;23.174;2022-09-09T12:39:42;26.00;99.90
15700;DHT22;7950;42.744;23.174;2022-09-09T12:42:19;25.90;99.90
15700;DHT22;7950;42.744;23.174;2022-09-09T12:44:53;25.90;99.90
15700;DHT22;7950;42.744;23.174;2022-09-09T12:47:28;25.90;99.90
15700;DHT22;7950;42.744;23.174;2022-09-09T12:50:03;25.90;99.90
15700;DHT22;7950;42.744;23.174;2022-09-09T12:52:35;25.90;99.90
15700;DHT22;7950;42.744;23.174;2022-09-09T12:55:06;26.00;99.90
15700;DHT22;7950;42.744;23.174;2022-09-09T12:57:37;25.90;99.90
15700;DHT22;7950;42.744;23.174;2022-09-09T13:00:14;25.90;99.90
15700;DHT22;7950;42.744;23.174;2022-09-09T13:02:49;25.70;99.90
15700;DHT22;7950;42.744;23.174;2022-09-09T13:05:22;25.60;99.90
15700;DHT22;7950;42.744;23.174;2022-09-09T13:08:00;25.60;99.90
15700;DHT22;7950;42.744;23.174;2022-09-09T13:10:32;25.60;99.90
15700;DHT22;7950;42.744;23.174;2022-09-09T13:13:23;25.60;99.90
15700;DHT22;7950;42.744;23.174;2022-09-09T13:15:56;25.60;99.90
15700;DHT22;7950;42.744;23.174;2022-09-09T13:18:28;25.70;99.90
15700;DHT22;7950;42.744;23.174;2022-09-09T13:21:15;25.60;99.90
15700;DHT22;7950;42.744;23.174;2022-09-09T13:23:48;25.60;99.90
15700;DHT22;7950;42.744;23.174;2022-09-09T13:26:24;25.50;99.90
15700;DHT22;7950;42.744;23.174;2022-09-09T13:28:54;25.50;99.90
15700;DHT22;7950;42.744;23.174;2022-09-09T13:31:36;25.30;99.90
15700;DHT22;7950;42.744;23.174;2022-09-09T13:34:11;25.20;99.90
15700;DHT22;7950;42.744;23.174;2022-09-09T13:36:41;25.10;99.90
15700;DHT22;7950;42.744;23.174;2022-09-09T13:39:17;25.10;99.90
15700;DHT22;7950;42.744;23.174;2022-09-09T13:41:47;25.10;99.90
15700;DHT22;7950;42.744;23.174;2022-09-09T13:44:20;25.10;99.90
15700;DHT22;7950;42.744;23.174;2022-09-09T13:47:02;25.10;99.90
15700;DHT22;7950;42.744;23.174;2022-09-09T13:49:36;25.20;99.90
15700;DHT22;7950;42.744;23.174;2022-09-09T13:52:09;25.20;99.90
15700;DHT22;7950;42.744;23.174;2022-09-09T13:54:42;25.20;99.90
15700;DHT22;7950;42.744;23.174;2022-09-09T13:57:15;25.40;99.90
15700;DHT22;7950;42.744;23.174;2022-09-09T13:59:46;25.50;99.90
15700;DHT22;7950;42.744;23.174;2022-09-09T14:02:39;25.50;99.90
15700;DHT22;7950;42.744;23.174;2022-09-09T14:05:08;25.60;99.90
15700;DHT22;7950;42.744;23.174;2022-09-09T14:07:36;25.70;99.90
15700;DHT22;7950;42.744;23.174;2022-09-09T14:10:09;25.80;99.90
15700;DHT22;7950;42.744;23.174;2022-09-09T14:12:38;25.80;99.90
15700;DHT22;7950;42.744;23.174;2022-09-09T14:15:10;25.80;99.90
15700;DHT22;7950;42.744;23.174;2022-09-09T14:17:39;25.70;99.90
15700;DHT22;7950;42.744;23.174;2022-09-09T14:20:09;25.60;99.90
15700;DHT22;7950;42.744;23.174;2022-09-09T14:22:39;25.60;99.90
15700;DHT22;7950;42.744;23.174;2022-09-09T14:25:09;25.50;99.90
15700;DHT22;7950;42.744;23.174;2022-09-09T14:27:38;25.40;99.90
15700;DHT22;7950;42.744;23.174;2022-09-09T14:30:08;25.30;99.90
15700;DHT22;7950;42.744;23.174;2022-09-09T14:32:38;25.30;99.90
15700;DHT22;7950;42.744;23.174;2022-09-09T14:35:07;25.50;99.90
15700;DHT22;7950;42.744;23.174;2022-09-09T14:37:36;25.70;99.90
15700;DHT22;7950;42.744;23.174;2022-09-09T14:40:06;25.70;99.90
15700;DHT22;7950;42.744;23.174;2022-09-09T14:42:37;25.70;99.90
15700;DHT22;7950;42.744;23.174;2022-09-09T14:45:07;25.70;99.90
15700;DHT22;7950;42.744;23.174;2022-09-09T14:47:36;25.60;99.90
15700;DHT22;7950;42.744;23.174;2022-09-09T14:50:06;25.40;99.90
15700;DHT22;7950;42.744;23.174;2022-09-09T14:52:35;25.30;99.90
15700;DHT22;7950;42.744;23.174;2022-09-09T14:55:04;25.20;99.90
15700;DHT22;7950;42.744;23.174;2022-09-09T14:57:35;25.10;99.90
15700;DHT22;7950;42.744;23.174;2022-09-09T15:00:05;25.10;99.90
15700;DHT22;7950;42.744;23.174;2022-09-09T15:02:35;25.00;99.90
15700;DHT22;7950;42.744;23.174;2022-09-09T15:05:06;25.10;99.90
15700;DHT22;7950;42.744;23.174;2022-09-09T15:07:35;25.10;99.90
15700;DHT22;7950;42.744;23.174;2022-09-09T15:10:05;25.10;99.90
15700;DHT22;7950;42.744;23.174;2022-09-09T15:12:35;25.20;99.90
15700;DHT22;7950;42.744;23.174;2022-09-09T15:15:06;25.20;99.90
15700;DHT22;7950;42.744;23.174;2022-09-09T15:17:36;25.30;99.90
15700;DHT22;7950;42.744;23.174;2022-09-09T15:20:05;25.40;99.90
15700;DHT22;7950;42.744;23.174;2022-09-09T15:22:35;25.50;99.90
15700;DHT22;7950;42.744;23.174;2022-09-09T15:25:05;25.60;99.90
15700;DHT22;7950;42.744;23.174;2022-09-09T15:27:49;25.60;99.90
15700;DHT22;7950;42.744;23.174;2022-09-09T15:30:18;25.50;99.90
15700;DHT22;7950;42.744;23.174;2022-09-09T15:32:47;25.50;99.90
15700;DHT22;7950;42.744;23.174;2022-09-09T15:35:16;25.40;99.90
15700;DHT22;7950;42.744;23.174;2022-09-09T15:37:45;25.30;99.90
15700;DHT22;7950;42.744;23.174;2022-09-09T15:40:13;25.30;99.90
15700;DHT22;7950;42.744;23.174;2022-09-09T15:42:42;25.20;99.90
15700;DHT22;7950;42.744;23.174;2022-09-09T15:45:14;25.10;99.90
15700;DHT22;7950;42.744;23.174;2022-09-09T15:47:43;25.00;99.90
15700;DHT22;7950;42.744;23.174;2022-09-09T15:50:13;24.80;99.90
15700;DHT22;7950;42.744;23.174;2022-09-09T15:52:42;24.70;99.90
15700;DHT22;7950;42.744;23.174;2022-09-09T15:55:11;24.60;99.90
15700;DHT22;7950;42.744;23.174;2022-09-09T15:57:40;24.40;99.90
15700;DHT22;7950;42.744;23.174;2022-09-09T16:00:11;24.40;99.90
15700;DHT22;7950;42.744;23.174;2022-09-09T16:02:42;24.30;99.90
15700;DHT22;7950;42.744;23.174;2022-09-09T16:05:11;24.20;99.90
15700;DHT22;7950;42.744;23.174;2022-09-09T16:07:40;24.10;99.90
15700;DHT22;7950;42.744;23.174;2022-09-09T16:10:09;24.00;99.90
15700;DHT22;7950;42.744;23.174;2022-09-09T16:12:40;23.90;99.90
15700;DHT22;7950;42.744;23.174;2022-09-09T16:15:11;23.80;99.90
15700;DHT22;7950;42.744;23.174;2022-09-09T16:17:39;23.70;99.90
15700;DHT22;7950;42.744;23.174;2022-09-09T16:20:10;23.60;99.90